createdAt,value
2023-01-07T00:00:30.297Z,9.48
2023-01-07T00:01:30.199Z,9.39
2023-01-07T00:02:30.223Z,9.39
2023-01-07T00:03:30.275Z,9.21
2023-01-07T00:04:30.185Z,9.15
2023-01-07T00:05:30.182Z,9.13
2023-01-07T00:06:30.290Z,9.11
2023-01-07T00:07:30.180Z,9.05
2023-01-07T00:08:30.182Z,8.91
2023-01-07T00:09:30.175Z,9.01
2023-01-07T00:10:30.166Z,8.91
2023-01-07T00:11:30.164Z,8.99
2023-01-07T00:12:30.159Z,9.01
2023-01-07T00:13:30.162Z,9.05
2023-01-07T00:14:30.159Z,8.92
2023-01-07T00:15:30.157Z,8.89
2023-01-07T00:16:30.238Z,8.95
2023-01-07T00:17:30.154Z,8.99
2023-01-07T00:18:30.142Z,9.05
2023-01-07T00:19:30.139Z,9.01
2023-01-07T00:20:30.136Z,8.99
2023-01-07T00:21:30.142Z,9.04
2023-01-07T00:22:30.251Z,9.04
2023-01-07T00:23:30.126Z,9.02
2023-01-07T00:24:30.133Z,9.02
2023-01-07T00:25:30.129Z,8.98
2023-01-07T00:26:30.116Z,9.05
2023-01-07T00:27:30.124Z,8.96
2023-01-07T00:28:30.121Z,9.08
2023-01-07T00:29:30.110Z,9.18
2023-01-07T00:30:30.115Z,9.08
2023-01-07T00:31:30.249Z,9.08
2023-01-07T00:32:30.099Z,9.04
2023-01-07T00:33:30.115Z,9.11
2023-01-07T00:34:30.094Z,9.05
2023-01-07T00:35:30.103Z,9.04
2023-01-07T00:36:30.098Z,9.14
2023-01-07T00:37:30.089Z,9.23
2023-01-07T00:38:30.197Z,9.23
2023-01-07T00:39:30.077Z,9.31
2023-01-07T00:40:30.070Z,9.26
2023-01-07T00:41:30.080Z,9.43
2023-01-07T00:42:30.071Z,9.39
2023-01-07T00:43:30.068Z,9.51
2023-01-07T00:44:30.060Z,9.54
2023-01-07T00:45:30.075Z,9.58
2023-01-07T00:46:30.119Z,9.61
2023-01-07T00:47:30.060Z,9.68
2023-01-07T00:48:30.052Z,9.86
2023-01-07T00:49:30.049Z,9.90
2023-01-07T00:50:30.048Z,10.01
2023-01-07T00:51:30.041Z,10.02
2023-01-07T00:52:30.039Z,10.02
2023-01-07T00:53:30.039Z,10.01
2023-01-07T00:54:30.188Z,10.04
2023-01-07T00:55:30.034Z,10.02
2023-01-07T00:56:30.030Z,10.05
2023-01-07T00:57:30.046Z,10.08
2023-01-07T00:58:30.019Z,10.05
2023-01-07T00:59:30.033Z,10.01
2023-01-07T01:00:30.100Z,10.04
2023-01-07T01:01:30.165Z,10.02
2023-01-07T01:02:30.074Z,10.04
2023-01-07T01:03:30.003Z,9.87
2023-01-07T01:04:29.998Z,9.87
2023-01-07T01:05:29.999Z,9.86
2023-01-07T01:06:29.994Z,9.89
2023-01-07T01:07:29.993Z,9.89
2023-01-07T01:08:29.995Z,9.94
2023-01-07T01:09:29.992Z,9.79
2023-01-07T01:10:30.107Z,9.83
2023-01-07T01:11:29.981Z,9.81
2023-01-07T01:12:29.977Z,9.71
2023-01-07T01:13:29.975Z,9.58
2023-01-07T01:14:29.983Z,9.53
2023-01-07T01:15:29.971Z,9.50
2023-01-07T01:16:30.069Z,9.53
2023-01-07T01:17:29.960Z,9.50
2023-01-07T01:18:29.958Z,9.51
2023-01-07T01:19:29.959Z,9.51
2023-01-07T01:20:29.952Z,9.53
2023-01-07T01:21:29.954Z,9.51
2023-01-07T01:22:29.949Z,9.53
2023-01-07T01:23:29.945Z,9.51
2023-01-07T01:24:29.941Z,9.48
2023-01-07T01:25:29.940Z,9.53
2023-01-07T01:26:30.065Z,9.51
2023-01-07T01:27:29.935Z,9.48
2023-01-07T01:28:29.932Z,9.51
2023-01-07T01:29:29.925Z,9.65
2023-01-07T01:30:29.924Z,9.58
2023-01-07T01:31:29.982Z,9.65
2023-01-07T01:32:29.913Z,9.61
2023-01-07T01:33:29.912Z,9.64
2023-01-07T01:34:29.905Z,9.51
2023-01-07T01:35:29.907Z,9.46
2023-01-07T01:36:29.901Z,9.42
2023-01-07T01:37:29.904Z,9.47
2023-01-07T01:38:29.895Z,9.39
2023-01-07T01:39:29.894Z,9.42
2023-01-07T01:40:29.894Z,9.36
2023-01-07T01:41:29.889Z,9.29
2023-01-07T01:42:29.999Z,9.32
2023-01-07T01:43:29.893Z,9.29
2023-01-07T01:44:29.879Z,9.33
2023-01-07T01:45:29.880Z,9.35
2023-01-07T01:46:29.919Z,9.28
2023-01-07T01:47:29.881Z,9.28
2023-01-07T01:48:29.863Z,9.21
2023-01-07T01:49:29.861Z,9.23
2023-01-07T01:50:29.861Z,9.29
2023-01-07T01:51:29.861Z,9.17
2023-01-07T01:52:29.856Z,9.13
2023-01-07T01:53:29.853Z,9.26
2023-01-07T01:54:29.845Z,9.15
2023-01-07T01:55:29.859Z,9.18
2023-01-07T01:56:29.840Z,9.23
2023-01-07T01:57:29.843Z,9.15
2023-01-07T01:58:29.950Z,9.18
2023-01-07T01:59:29.843Z,9.31
2023-01-07T02:00:29.870Z,9.33
2023-01-07T02:01:29.971Z,9.38
2023-01-07T02:02:29.886Z,9.43
2023-01-07T02:03:29.824Z,9.48
2023-01-07T02:04:29.814Z,9.53
2023-01-07T02:05:29.816Z,9.47
2023-01-07T02:06:29.809Z,9.51
2023-01-07T02:07:29.818Z,9.53
2023-01-07T02:08:29.804Z,9.50
2023-01-07T02:09:29.811Z,9.51
2023-01-07T02:10:29.801Z,9.47
2023-01-07T02:11:29.802Z,9.53
2023-01-07T02:12:29.791Z,9.54
2023-01-07T02:13:29.788Z,9.51
2023-01-07T02:14:29.804Z,9.60
2023-01-07T02:15:29.780Z,9.56
2023-01-07T02:16:29.855Z,9.71
2023-01-07T02:17:29.774Z,9.71
2023-01-07T02:18:29.771Z,9.74
2023-01-07T02:19:29.773Z,9.75
2023-01-07T02:20:29.762Z,9.76
2023-01-07T02:21:29.759Z,9.71
2023-01-07T02:22:29.756Z,9.61
2023-01-07T02:23:29.754Z,9.57
2023-01-07T02:24:29.752Z,9.61
2023-01-07T02:25:29.748Z,9.58
2023-01-07T02:26:29.749Z,9.58
2023-01-07T02:27:29.744Z,9.47
2023-01-07T02:28:29.750Z,9.42
2023-01-07T02:29:29.735Z,9.40
2023-01-07T02:30:29.860Z,9.39
2023-01-07T02:31:29.818Z,9.39
2023-01-07T02:32:29.731Z,9.39
2023-01-07T02:33:29.720Z,9.51
2023-01-07T02:34:29.723Z,9.57
2023-01-07T02:35:29.734Z,9.54
2023-01-07T02:36:29.715Z,9.61
2023-01-07T02:37:29.709Z,9.60
2023-01-07T02:38:29.710Z,9.66
2023-01-07T02:39:29.703Z,9.74
2023-01-07T02:40:29.701Z,9.66
2023-01-07T02:41:29.696Z,9.72
2023-01-07T02:42:29.695Z,9.69
2023-01-07T02:43:29.687Z,9.69
2023-01-07T02:44:29.702Z,9.65
2023-01-07T02:45:29.836Z,9.69
2023-01-07T02:46:29.816Z,9.74
2023-01-07T02:47:29.678Z,9.57
2023-01-07T02:48:29.679Z,9.69
2023-01-07T02:49:29.670Z,9.58
2023-01-07T02:50:29.689Z,9.54
2023-01-07T02:51:29.668Z,9.57
2023-01-07T02:52:29.668Z,9.53
2023-01-07T02:53:29.661Z,9.50
2023-01-07T02:54:29.679Z,9.40
2023-01-07T02:55:29.651Z,9.43
2023-01-07T02:56:29.654Z,9.39
2023-01-07T02:57:29.652Z,9.43
2023-01-07T02:58:29.646Z,9.28
2023-01-07T02:59:29.635Z,9.40
2023-01-07T03:00:29.642Z,9.32
2023-01-07T03:01:29.735Z,9.43
2023-01-07T03:02:29.751Z,9.39
2023-01-07T03:03:29.626Z,9.39
2023-01-07T03:04:29.633Z,9.40
2023-01-07T03:05:29.623Z,9.36
2023-01-07T03:06:29.625Z,9.35
2023-01-07T03:07:29.615Z,9.31
2023-01-07T03:08:29.615Z,9.31
2023-01-07T03:09:29.618Z,9.29
2023-01-07T03:10:29.616Z,9.31
2023-01-07T03:11:29.601Z,9.31
2023-01-07T03:12:29.610Z,9.40
2023-01-07T03:13:29.596Z,9.28
2023-01-07T03:14:29.597Z,9.29
2023-01-07T03:15:29.637Z,9.36
2023-01-07T03:16:29.638Z,9.38
2023-01-07T03:17:29.584Z,9.31
2023-01-07T03:18:29.725Z,9.24
2023-01-07T03:19:29.585Z,9.20
2023-01-07T03:20:29.574Z,9.14
2023-01-07T03:21:29.574Z,9.05
2023-01-07T03:22:29.568Z,9.23
2023-01-07T03:23:29.560Z,9.02
2023-01-07T03:24:29.562Z,9.02
2023-01-07T03:25:29.558Z,9.08
2023-01-07T03:26:29.561Z,9.05
2023-01-07T03:27:29.546Z,9.01
2023-01-07T03:28:29.551Z,8.95
2023-01-07T03:29:29.548Z,9.02
2023-01-07T03:30:29.548Z,9.02
2023-01-07T03:31:29.614Z,8.98
2023-01-07T03:32:29.536Z,9.02
2023-01-07T03:33:29.531Z,9.11
2023-01-07T03:34:29.654Z,9.18
2023-01-07T03:35:29.532Z,9.26
2023-01-07T03:36:29.520Z,9.33
2023-01-07T03:37:29.520Z,9.31
2023-01-07T03:38:29.524Z,9.28
2023-01-07T03:39:29.516Z,9.36
2023-01-07T03:40:29.507Z,9.31
2023-01-07T03:41:29.520Z,9.26
2023-01-07T03:42:29.506Z,9.20
2023-01-07T03:43:29.503Z,9.17
2023-01-07T03:44:29.497Z,9.14
2023-01-07T03:45:29.539Z,9.13
2023-01-07T03:46:29.494Z,9.10
2023-01-07T03:47:29.483Z,9.14
2023-01-07T03:48:29.497Z,9.04
2023-01-07T03:49:29.478Z,9.02
2023-01-07T03:50:29.592Z,9.02
2023-01-07T03:51:29.474Z,8.94
2023-01-07T03:52:29.471Z,8.89
2023-01-07T03:53:29.466Z,8.83
2023-01-07T03:54:29.471Z,8.89
2023-01-07T03:55:29.457Z,8.83
2023-01-07T03:56:29.476Z,8.96
2023-01-07T03:57:29.452Z,8.80
2023-01-07T03:58:29.452Z,8.98
2023-01-07T03:59:29.448Z,8.92
2023-01-07T04:00:29.448Z,8.87
2023-01-07T04:01:29.514Z,8.77
2023-01-07T04:02:29.443Z,8.81
2023-01-07T04:03:29.435Z,8.71
2023-01-07T04:04:29.492Z,8.76
2023-01-07T04:05:29.426Z,8.66
2023-01-07T04:06:29.553Z,8.77
2023-01-07T04:07:29.420Z,8.77
2023-01-07T04:08:29.419Z,8.73
2023-01-07T04:09:29.415Z,8.91
2023-01-07T04:10:29.412Z,8.91
2023-01-07T04:11:29.420Z,8.92
2023-01-07T04:12:29.404Z,9.02
2023-01-07T04:13:29.399Z,9.04
2023-01-07T04:14:29.399Z,9.01
2023-01-07T04:15:29.403Z,9.15
2023-01-07T04:16:29.459Z,9.17
2023-01-07T04:17:29.397Z,9.18
2023-01-07T04:18:29.384Z,9.17
2023-01-07T04:19:29.377Z,9.20
2023-01-07T04:20:29.387Z,9.04
2023-01-07T04:21:29.378Z,9.14
2023-01-07T04:22:29.500Z,9.04
2023-01-07T04:23:29.371Z,9.14
2023-01-07T04:24:29.366Z,9.01
2023-01-07T04:25:29.357Z,9.08
2023-01-07T04:26:29.374Z,9.14
2023-01-07T04:27:29.361Z,9.10
2023-01-07T04:28:29.355Z,9.21
2023-01-07T04:29:29.347Z,9.01
2023-01-07T04:30:29.376Z,9.01
2023-01-07T04:31:29.338Z,9.05
2023-01-07T04:32:29.340Z,8.96
2023-01-07T04:33:29.333Z,9.04
2023-01-07T04:34:29.332Z,8.99
2023-01-07T04:35:29.331Z,9.02
2023-01-07T04:36:29.335Z,9.05
2023-01-07T04:37:29.324Z,9.08
2023-01-07T04:38:29.350Z,9.02
2023-01-07T04:39:29.318Z,8.94
2023-01-07T04:40:29.315Z,8.92
2023-01-07T04:41:29.312Z,9.02
2023-01-07T04:42:29.308Z,9.04
2023-01-07T04:43:29.299Z,9.11
2023-01-07T04:44:29.295Z,9.15
2023-01-07T04:45:29.293Z,9.10
2023-01-07T04:46:29.391Z,9.14
2023-01-07T04:47:29.296Z,9.17
2023-01-07T04:48:29.289Z,9.04
2023-01-07T04:49:44.311Z,9.18
2023-01-07T04:50:44.296Z,9.13
2023-01-07T04:51:44.307Z,9.08
2023-01-07T04:52:44.294Z,8.95
2023-01-07T04:53:44.400Z,8.92
2023-01-07T04:54:44.282Z,8.83
2023-01-07T04:55:46.273Z,8.96
2023-01-07T04:56:44.289Z,8.74
2023-01-07T04:57:44.277Z,8.81
2023-01-07T04:58:44.276Z,8.71
2023-01-07T04:59:44.275Z,8.91
2023-01-07T05:00:44.261Z,8.65
2023-01-07T05:01:44.414Z,8.70
2023-01-07T05:02:44.256Z,8.62
2023-01-07T05:03:44.257Z,8.65
2023-01-07T05:04:44.293Z,8.65
2023-01-07T05:05:44.245Z,8.55
2023-01-07T05:06:44.244Z,8.61
2023-01-07T05:07:44.248Z,8.58
2023-01-07T05:08:44.238Z,8.62
2023-01-07T05:09:44.357Z,8.59
2023-01-07T05:10:44.228Z,8.68
2023-01-07T05:11:44.241Z,8.65
2023-01-07T05:12:44.220Z,8.59
2023-01-07T05:13:44.217Z,8.68
2023-01-07T05:14:44.213Z,8.76
2023-01-07T05:15:44.213Z,8.73
2023-01-07T05:16:44.300Z,8.71
2023-01-07T05:17:44.207Z,8.66
2023-01-07T05:18:44.203Z,8.77
2023-01-07T05:19:44.202Z,8.77
2023-01-07T05:20:44.196Z,8.79
2023-01-07T05:21:44.193Z,8.94
2023-01-07T05:22:44.186Z,9.05
2023-01-07T05:23:44.182Z,9.11
2023-01-07T05:24:44.179Z,9.15
2023-01-07T05:25:44.297Z,9.10
2023-01-07T05:26:44.173Z,9.20
2023-01-07T05:27:44.174Z,9.15
2023-01-07T05:28:44.167Z,9.21
2023-01-07T05:29:44.184Z,9.31
2023-01-07T05:30:44.196Z,9.26
2023-01-07T05:31:44.167Z,9.38
2023-01-07T05:32:44.153Z,9.48
2023-01-07T05:33:44.151Z,9.50
2023-01-07T05:34:44.147Z,9.48
2023-01-07T05:35:44.156Z,9.50
2023-01-07T05:36:44.142Z,9.60
2023-01-07T05:37:44.138Z,9.58
2023-01-07T05:38:44.136Z,9.66
2023-01-07T05:39:44.133Z,9.69
2023-01-07T05:40:44.123Z,9.66
2023-01-07T05:41:44.254Z,9.76
2023-01-07T05:42:44.119Z,9.81
2023-01-07T05:43:44.128Z,9.84
2023-01-07T05:44:44.112Z,9.83
2023-01-07T05:45:44.190Z,9.84
2023-01-07T05:46:44.116Z,9.89
2023-01-07T05:47:44.107Z,9.96
2023-01-07T05:48:44.100Z,9.89
2023-01-07T05:49:44.103Z,9.96
2023-01-07T05:50:44.097Z,10.01
2023-01-07T05:51:44.099Z,10.05
2023-01-07T05:52:44.088Z,10.07
2023-01-07T05:53:44.085Z,10.08
2023-01-07T05:54:44.081Z,10.04
2023-01-07T05:55:44.078Z,10.01
2023-01-07T05:56:44.072Z,10.05
2023-01-07T05:57:44.197Z,10.05
2023-01-07T05:58:44.068Z,10.07
2023-01-07T05:59:44.068Z,10.09
2023-01-07T06:00:44.059Z,10.15
2023-01-07T06:01:44.140Z,10.07
2023-01-07T06:02:44.054Z,10.08
2023-01-07T06:03:44.112Z,10.14
2023-01-07T06:04:44.081Z,10.15
2023-01-07T06:05:44.050Z,10.11
2023-01-07T06:06:44.052Z,10.08
2023-01-07T06:07:44.043Z,10.12
2023-01-07T06:08:44.043Z,10.02
2023-01-07T06:09:44.040Z,10.05
2023-01-07T06:10:44.035Z,10.01
2023-01-07T06:11:44.026Z,10.07
2023-01-07T06:12:44.022Z,10.05
2023-01-07T06:13:44.142Z,10.11
2023-01-07T06:14:44.013Z,10.09
2023-01-07T06:15:44.162Z,10.05
2023-01-07T06:16:44.011Z,10.20
2023-01-07T06:17:44.008Z,10.09
2023-01-07T06:18:44.009Z,10.22
2023-01-07T06:19:44.003Z,10.08
2023-01-07T06:20:43.994Z,10.14
2023-01-07T06:21:43.999Z,10.15
2023-01-07T06:22:43.995Z,10.14
2023-01-07T06:23:43.997Z,10.26
2023-01-07T06:24:43.985Z,10.14
2023-01-07T06:25:43.998Z,10.27
2023-01-07T06:26:43.981Z,10.27
2023-01-07T06:27:43.978Z,10.27
2023-01-07T06:28:43.984Z,10.32
2023-01-07T06:29:44.099Z,10.29
2023-01-07T06:30:44.004Z,10.30
2023-01-07T06:31:43.983Z,10.40
2023-01-07T06:32:43.964Z,10.32
2023-01-07T06:33:43.970Z,10.33
2023-01-07T06:34:43.961Z,10.30
2023-01-07T06:35:43.956Z,10.29
2023-01-07T06:36:43.952Z,10.29
2023-01-07T06:37:43.956Z,10.45
2023-01-07T06:38:43.942Z,10.40
2023-01-07T06:39:43.942Z,10.44
2023-01-07T06:40:43.940Z,10.41
2023-01-07T06:41:43.940Z,10.41
2023-01-07T06:42:43.945Z,10.36
2023-01-07T06:43:43.936Z,10.32
2023-01-07T06:44:43.926Z,10.26
2023-01-07T06:45:44.040Z,10.23
2023-01-07T06:46:44.053Z,10.22
2023-01-07T06:47:43.918Z,10.18
2023-01-07T06:48:43.910Z,10.30
2023-01-07T06:49:43.911Z,10.30
2023-01-07T06:50:43.918Z,10.41
2023-01-07T06:51:43.909Z,10.44
2023-01-07T06:52:43.902Z,10.45
2023-01-07T06:53:43.913Z,10.44
2023-01-07T06:54:43.897Z,10.33
2023-01-07T06:55:43.897Z,10.36
2023-01-07T06:56:43.897Z,10.40
2023-01-07T06:57:43.886Z,10.36
2023-01-07T06:58:43.880Z,10.53
2023-01-07T06:59:43.883Z,10.55
2023-01-07T07:00:43.873Z,10.61
2023-01-07T07:01:46.431Z,10.74
2023-01-07T07:02:43.900Z,10.63
2023-01-07T07:03:43.868Z,10.73
2023-01-07T07:04:43.871Z,10.74
2023-01-07T07:05:43.862Z,10.81
2023-01-07T07:06:43.870Z,10.81
2023-01-07T07:07:43.859Z,10.89
2023-01-07T07:08:43.856Z,10.81
2023-01-07T07:09:43.870Z,10.73
2023-01-07T07:10:43.852Z,10.82
2023-01-07T07:11:43.863Z,10.86
2023-01-07T07:12:43.841Z,10.88
2023-01-07T07:13:43.851Z,10.81
2023-01-07T07:14:43.838Z,10.94
2023-01-07T07:15:43.896Z,10.86
2023-01-07T07:16:43.826Z,10.89
2023-01-07T07:17:43.983Z,10.94
2023-01-07T07:18:43.827Z,11.02
2023-01-07T07:19:43.823Z,11.03
2023-01-07T07:20:43.819Z,11.07
2023-01-07T07:21:43.839Z,11.14
2023-01-07T07:22:43.811Z,11.06
2023-01-07T07:23:43.816Z,11.03
2023-01-07T07:24:43.812Z,11.03
2023-01-07T07:25:43.812Z,11.09
2023-01-07T07:26:43.803Z,11.14
2023-01-07T07:27:43.800Z,11.15
2023-01-07T07:28:43.798Z,11.17
2023-01-07T07:29:43.792Z,11.24
2023-01-07T07:30:45.560Z,11.21
2023-01-07T07:31:43.902Z,11.25
2023-01-07T07:32:43.788Z,11.36
2023-01-07T07:33:43.897Z,11.25
2023-01-07T07:34:43.778Z,11.35
2023-01-07T07:35:43.782Z,11.25
2023-01-07T07:36:44.588Z,11.36
2023-01-07T07:37:43.776Z,11.29
2023-01-07T07:38:43.764Z,11.28
2023-01-07T07:39:43.780Z,11.22
2023-01-07T07:40:43.763Z,11.24
2023-01-07T07:41:43.779Z,11.21
2023-01-07T07:43:10.870Z,11.22
2023-01-07T07:43:43.771Z,11.21
2023-01-07T07:44:43.749Z,11.17
2023-01-07T07:45:43.753Z,11.36
2023-01-07T07:46:43.824Z,11.36
2023-01-07T07:47:43.744Z,11.32
2023-01-07T07:48:43.745Z,11.44
2023-01-07T07:49:43.872Z,11.39
2023-01-07T07:50:43.737Z,11.36
2023-01-07T07:51:43.738Z,11.40
2023-01-07T07:52:43.727Z,11.39
2023-01-07T07:53:43.729Z,11.40
2023-01-07T07:54:43.728Z,11.42
2023-01-07T07:55:43.731Z,11.51
2023-01-07T07:56:43.730Z,11.52
2023-01-07T07:57:43.731Z,11.47
2023-01-07T07:58:43.709Z,11.61
2023-01-07T07:59:43.711Z,11.65
2023-01-07T08:00:43.715Z,11.64
2023-01-07T08:01:43.897Z,11.54
2023-01-07T08:02:43.703Z,11.55
2023-01-07T08:03:43.818Z,11.52
2023-01-07T08:04:43.697Z,11.52
2023-01-07T08:05:43.821Z,11.62
2023-01-07T08:06:43.697Z,11.54
2023-01-07T08:07:43.689Z,11.51
2023-01-07T08:08:43.687Z,11.55
2023-01-07T08:09:43.692Z,11.57
2023-01-07T08:10:43.682Z,11.55
2023-01-07T08:11:43.679Z,11.70
2023-01-07T08:12:43.675Z,11.70
2023-01-07T08:13:43.675Z,11.70
2023-01-07T08:14:43.958Z,11.75
2023-01-07T08:15:43.680Z,11.76
2023-01-07T08:16:43.663Z,11.64
2023-01-07T08:17:43.666Z,11.67
2023-01-07T08:18:43.680Z,11.65
2023-01-07T08:19:43.667Z,11.70
2023-01-07T08:20:43.653Z,11.61
2023-01-07T08:21:43.770Z,11.75
2023-01-07T08:22:43.644Z,11.69
2023-01-07T08:23:43.663Z,11.78
2023-01-07T08:24:43.642Z,11.76
2023-01-07T08:25:43.649Z,11.75
2023-01-07T08:26:43.632Z,11.80
2023-01-07T08:27:43.637Z,11.76
2023-01-07T08:28:45.825Z,11.72
2023-01-07T08:29:43.627Z,11.73
2023-01-07T08:30:43.638Z,11.73
2023-01-07T08:31:43.695Z,11.76
2023-01-07T08:32:43.623Z,11.76
2023-01-07T08:33:43.617Z,11.86
2023-01-07T08:34:43.612Z,11.95
2023-01-07T08:35:43.617Z,11.88
2023-01-07T08:36:43.610Z,11.94
2023-01-07T08:37:43.725Z,11.91
2023-01-07T08:38:43.608Z,11.94
2023-01-07T08:39:43.603Z,11.98
2023-01-07T08:40:43.601Z,11.98
2023-01-07T08:41:43.601Z,11.95
2023-01-07T08:42:43.595Z,11.96
2023-01-07T08:43:43.594Z,12.09
2023-01-07T08:44:43.590Z,12.14
2023-01-07T08:45:43.589Z,12.09
2023-01-07T08:46:43.619Z,12.02
2023-01-07T08:47:45.839Z,12.09
2023-01-07T08:48:43.579Z,12.13
2023-01-07T08:49:43.580Z,12.13
2023-01-07T08:50:43.571Z,12.17
2023-01-07T08:51:43.575Z,12.19
2023-01-07T08:52:43.569Z,12.12
2023-01-07T08:53:43.680Z,12.09
2023-01-07T08:54:43.564Z,11.98
2023-01-07T08:55:43.572Z,12.04
2023-01-07T08:56:43.574Z,12.20
2023-01-07T08:57:43.559Z,12.19
2023-01-07T08:58:43.570Z,12.31
2023-01-07T08:59:43.562Z,12.24
2023-01-07T09:00:43.620Z,12.27
2023-01-07T09:01:43.785Z,12.32
2023-01-07T09:02:43.671Z,12.35
2023-01-07T09:03:43.550Z,12.27
2023-01-07T09:04:43.548Z,12.56
2023-01-07T09:05:43.539Z,12.56
2023-01-07T09:06:43.548Z,12.64
2023-01-07T09:07:43.539Z,12.70
2023-01-07T09:08:43.533Z,12.65
2023-01-07T09:09:43.653Z,12.67
2023-01-07T09:10:43.534Z,12.68
2023-01-07T09:11:43.567Z,12.68
2023-01-07T09:12:43.525Z,12.70
2023-01-07T09:13:43.518Z,12.54
2023-01-07T09:14:43.521Z,12.62
2023-01-07T09:15:43.516Z,12.49
2023-01-07T09:16:43.548Z,12.47
2023-01-07T09:17:43.514Z,12.53
2023-01-07T09:18:43.515Z,12.70
2023-01-07T09:19:43.517Z,12.72
2023-01-07T09:20:43.511Z,12.72
2023-01-07T09:21:43.504Z,12.70
2023-01-07T09:22:43.510Z,12.82
2023-01-07T09:23:43.508Z,12.79
2023-01-07T09:24:43.497Z,12.60
2023-01-07T09:25:43.610Z,12.68
2023-01-07T09:26:43.495Z,12.71
2023-01-07T09:27:43.525Z,12.67
2023-01-07T09:28:43.501Z,12.70
2023-01-07T09:29:43.490Z,12.67
2023-01-07T09:30:43.487Z,12.71
2023-01-07T09:31:43.505Z,12.83
2023-01-07T09:32:43.481Z,12.71
2023-01-07T09:33:43.480Z,12.74
2023-01-07T09:34:43.476Z,12.59
2023-01-07T09:35:43.482Z,12.47
2023-01-07T09:36:43.475Z,12.62
2023-01-07T09:37:43.491Z,12.56
2023-01-07T09:38:43.477Z,12.46
2023-01-07T09:39:43.491Z,12.54
2023-01-07T09:40:43.470Z,12.62
2023-01-07T09:41:43.587Z,12.77
2023-01-07T09:42:43.467Z,12.75
2023-01-07T09:44:00.624Z,12.75
2023-01-07T09:44:43.458Z,12.77
2023-01-07T09:45:43.497Z,12.82
2023-01-07T09:46:43.476Z,12.65
2023-01-07T09:47:43.455Z,12.64
2023-01-07T09:48:43.450Z,12.54
2023-01-07T09:49:43.461Z,12.53
2023-01-07T09:50:43.454Z,12.54
2023-01-07T09:51:43.442Z,12.68
2023-01-07T09:52:43.445Z,12.62
2023-01-07T09:53:43.444Z,12.68
2023-01-07T09:54:43.435Z,12.70
2023-01-07T09:56:11.176Z,12.64
2023-01-07T09:56:43.432Z,12.75
2023-01-07T09:57:43.543Z,12.87
2023-01-07T09:58:43.441Z,12.77
2023-01-07T09:59:43.433Z,12.64
2023-01-07T10:00:43.435Z,12.68
2023-01-07T10:01:43.425Z,12.78
2023-01-07T10:02:43.525Z,12.75
2023-01-07T10:03:43.449Z,12.74
2023-01-07T10:04:43.426Z,12.70
2023-01-07T10:05:43.415Z,12.60
2023-01-07T10:06:44.282Z,12.72
2023-01-07T10:07:43.427Z,12.59
2023-01-07T10:08:43.407Z,12.74
2023-01-07T10:09:43.406Z,12.75
2023-01-07T10:10:43.411Z,12.75
2023-01-07T10:11:44.244Z,12.89
2023-01-07T10:12:43.415Z,12.87
2023-01-07T10:13:43.514Z,12.82
2023-01-07T10:14:43.408Z,12.72
2023-01-07T10:15:43.399Z,12.68
2023-01-07T10:16:43.441Z,12.83
2023-01-07T10:17:43.390Z,12.87
2023-01-07T10:18:43.390Z,12.83
2023-01-07T10:19:43.386Z,12.86
2023-01-07T10:20:43.391Z,12.85
2023-01-07T10:21:43.388Z,12.97
2023-01-07T10:22:43.433Z,13.07
2023-01-07T10:23:43.403Z,12.97
2023-01-07T10:24:43.397Z,13.04
2023-01-07T10:25:43.374Z,13.12
2023-01-07T10:26:43.380Z,13.10
2023-01-07T10:27:43.375Z,12.95
2023-01-07T10:28:43.398Z,13.07
2023-01-07T10:29:43.484Z,13.01
2023-01-07T10:30:43.369Z,13.11
2023-01-07T10:31:43.412Z,13.15
2023-01-07T10:32:43.367Z,13.19
2023-01-07T10:33:43.357Z,13.11
2023-01-07T10:34:43.359Z,13.15
2023-01-07T10:35:43.358Z,13.23
2023-01-07T10:36:43.360Z,13.20
2023-01-07T10:37:43.350Z,13.22
2023-01-07T10:38:43.355Z,13.19
2023-01-07T10:39:43.360Z,13.29
2023-01-07T10:40:43.351Z,13.33
2023-01-07T10:41:43.343Z,13.39
2023-01-07T10:42:43.342Z,13.39
2023-01-07T10:43:43.343Z,13.55
2023-01-07T10:44:43.341Z,13.51
2023-01-07T10:45:43.532Z,13.48
2023-01-07T10:46:43.333Z,13.52
2023-01-07T10:47:43.338Z,13.51
2023-01-07T10:48:43.343Z,13.59
2023-01-07T10:49:43.330Z,13.63
2023-01-07T10:50:43.340Z,13.62
2023-01-07T10:51:43.327Z,13.63
2023-01-07T10:52:43.330Z,13.69
2023-01-07T10:53:43.328Z,13.64
2023-01-07T10:54:43.331Z,13.73
2023-01-07T10:55:43.329Z,13.75
2023-01-07T10:56:43.331Z,13.85
2023-01-07T10:57:43.314Z,13.78
2023-01-07T10:58:43.326Z,13.89
2023-01-07T10:59:43.312Z,13.97
2023-01-07T11:00:43.396Z,13.69
2023-01-07T11:01:43.628Z,13.87
2023-01-07T11:02:43.387Z,13.85
2023-01-07T11:03:43.307Z,13.92
2023-01-07T11:04:43.313Z,14.00
2023-01-07T11:05:43.307Z,13.97
2023-01-07T11:06:43.312Z,13.85
2023-01-07T11:07:43.301Z,13.91
2023-01-07T11:08:43.316Z,14.02
2023-01-07T11:09:43.305Z,13.96
2023-01-07T11:10:43.299Z,14.07
2023-01-07T11:11:43.295Z,14.22
2023-01-07T11:12:43.301Z,14.27
2023-01-07T11:13:43.289Z,14.35
2023-01-07T11:14:43.296Z,14.43
2023-01-07T11:15:43.295Z,14.43
2023-01-07T11:16:43.437Z,14.39
2023-01-07T11:17:43.406Z,14.50
2023-01-07T11:18:43.289Z,14.55
2023-01-07T11:19:43.284Z,14.45
2023-01-07T11:20:43.291Z,14.68
2023-01-07T11:21:44.722Z,14.77
2023-01-07T11:22:43.285Z,14.91
2023-01-07T11:23:44.147Z,14.89
2023-01-07T11:24:43.281Z,14.83
2023-01-07T11:25:43.268Z,14.83
2023-01-07T11:26:43.280Z,14.91
2023-01-07T11:27:43.275Z,14.84
2023-01-07T11:28:43.273Z,14.80
2023-01-07T11:29:43.275Z,14.62
2023-01-07T11:30:43.274Z,14.58
2023-01-07T11:31:43.347Z,14.55
2023-01-07T11:32:43.277Z,14.69
2023-01-07T11:34:02.929Z,14.60
2023-01-07T11:34:43.272Z,14.62
2023-01-07T11:35:43.265Z,14.68
2023-01-07T11:36:43.274Z,14.50
2023-01-07T11:37:43.261Z,14.54
2023-01-07T11:38:43.264Z,14.64
2023-01-07T11:39:43.262Z,14.69
2023-01-07T11:40:43.259Z,14.54
2023-01-07T11:41:43.260Z,14.69
2023-01-07T11:42:43.258Z,14.69
2023-01-07T11:43:43.255Z,14.57
2023-01-07T11:44:43.256Z,14.46
2023-01-07T11:45:43.271Z,14.46
2023-01-07T11:46:43.362Z,14.42
2023-01-07T11:47:43.247Z,14.37
2023-01-07T11:48:43.251Z,14.43
2023-01-07T11:49:43.361Z,14.28
2023-01-07T11:50:43.248Z,14.24
2023-01-07T11:51:43.242Z,14.36
2023-01-07T11:52:43.240Z,14.39
2023-01-07T11:53:43.239Z,14.32
2023-01-07T11:54:43.238Z,14.42
2023-01-07T11:55:43.250Z,14.40
2023-01-07T11:56:43.259Z,14.45
2023-01-07T11:57:43.239Z,14.46
2023-01-07T11:58:43.240Z,14.43
2023-01-07T11:59:43.239Z,14.22
2023-01-07T12:00:43.245Z,14.36
2023-01-07T12:01:43.239Z,14.32
2023-01-07T12:02:43.333Z,14.35
2023-01-07T12:03:43.520Z,14.45
2023-01-07T12:04:43.251Z,14.50
2023-01-07T12:05:43.242Z,14.68
2023-01-07T12:06:43.231Z,14.80
2023-01-07T12:07:43.225Z,14.88
2023-01-07T12:08:43.228Z,14.84
2023-01-07T12:09:43.220Z,14.77
2023-01-07T12:10:43.220Z,14.70
2023-01-07T12:11:43.224Z,14.61
2023-01-07T12:12:43.225Z,14.68
2023-01-07T12:13:43.215Z,14.75
2023-01-07T12:14:43.216Z,14.89
2023-01-07T12:15:43.212Z,14.83
2023-01-07T12:16:43.254Z,14.80
2023-01-07T12:17:43.209Z,14.96
2023-01-07T12:18:43.216Z,15.11
2023-01-07T12:19:43.210Z,15.10
2023-01-07T12:20:43.208Z,15.14
2023-01-07T12:21:43.326Z,15.29
2023-01-07T12:22:43.256Z,15.16
2023-01-07T12:23:43.212Z,15.28
2023-01-07T12:24:43.217Z,15.31
2023-01-07T12:25:43.209Z,15.38
2023-01-07T12:26:43.202Z,15.44
2023-01-07T12:27:43.200Z,15.29
2023-01-07T12:28:43.205Z,15.41
2023-01-07T12:29:43.195Z,15.36
2023-01-07T12:30:44.162Z,15.34
2023-01-07T12:31:43.253Z,15.17
2023-01-07T12:32:43.204Z,15.13
2023-01-07T12:33:43.188Z,15.02
2023-01-07T12:34:43.198Z,15.01
2023-01-07T12:35:43.201Z,14.96
2023-01-07T12:36:43.220Z,15.03
2023-01-07T12:37:43.208Z,14.84
2023-01-07T12:38:43.194Z,14.91
2023-01-07T12:39:43.184Z,14.94
2023-01-07T12:40:43.190Z,14.77
2023-01-07T12:41:43.194Z,14.72
2023-01-07T12:42:43.187Z,14.81
2023-01-07T12:43:43.186Z,14.64
2023-01-07T12:44:43.193Z,14.64
2023-01-07T12:45:43.174Z,14.54
2023-01-07T12:46:43.185Z,14.51
2023-01-07T12:47:43.187Z,14.58
2023-01-07T12:48:43.177Z,14.54
2023-01-07T12:49:43.175Z,14.39
2023-01-07T12:50:43.214Z,14.42
2023-01-07T12:51:43.174Z,14.55
2023-01-07T12:52:43.172Z,14.58
2023-01-07T12:53:43.292Z,14.64
2023-01-07T12:54:43.179Z,14.61
2023-01-07T12:55:43.174Z,14.68
2023-01-07T12:56:43.175Z,14.70
2023-01-07T12:57:43.174Z,14.69
2023-01-07T12:58:43.168Z,14.70
2023-01-07T12:59:46.999Z,14.61
2023-01-07T13:00:43.167Z,14.65
2023-01-07T13:01:43.431Z,14.68
2023-01-07T13:02:43.166Z,14.73
2023-01-07T13:03:43.159Z,14.86